sensor_id;sensor_type;location;lat;lon;timestamp;temperature;humidity
21481;DHT22;10902;48.158;8.634;2023-07-24T00:01:47;17.10;99.90
21481;DHT22;10902;48.158;8.634;2023-07-24T00:04:33;17.10;99.90
21481;DHT22;10902;48.158;8.634;2023-07-24T00:07:18;17.10;99.90
21481;DHT22;10902;48.158;8.634;2023-07-24T00:10:04;17.10;99.90
21481;DHT22;10902;48.158;8.634;2023-07-24T00:12:50;17.00;99.90
21481;DHT22;10902;48.158;8.634;2023-07-24T00:15:35;17.00;99.90
21481;DHT22;10902;48.158;8.634;2023-07-24T00:18:23;17.00;99.90
21481;DHT22;10902;48.158;8.634;2023-07-24T00:21:09;17.00;99.90
21481;DHT22;10902;48.158;8.634;2023-07-24T00:23:56;16.80;99.90
21481;DHT22;10902;48.158;8.634;2023-07-24T00:26:41;16.60;99.90
21481;DHT22;10902;48.158;8.634;2023-07-24T00:29:27;16.80;99.90
21481;DHT22;10902;48.158;8.634;2023-07-24T00:32:12;16.60;99.90
21481;DHT22;10902;48.158;8.634;2023-07-24T00:34:58;16.50;99.90
21481;DHT22;10902;48.158;8.634;2023-07-24T00:37:44;16.40;99.90
21481;DHT22;10902;48.158;8.634;2023-07-24T00:40:29;16.30;99.90
21481;DHT22;10902;48.158;8.634;2023-07-24T00:43:15;16.30;99.90
21481;DHT22;10902;48.158;8.634;2023-07-24T00:46:02;16.30;99.90
21481;DHT22;10902;48.158;8.634;2023-07-24T00:48:47;16.30;99.90
21481;DHT22;10902;48.158;8.634;2023-07-24T00:51:34;16.40;99.90
21481;DHT22;10902;48.158;8.634;2023-07-24T00:54:21;16.60;99.90
21481;DHT22;10902;48.158;8.634;2023-07-24T00:57:07;16.60;99.90
21481;DHT22;10902;48.158;8.634;2023-07-24T00:59:53;16.50;99.90
21481;DHT22;10902;48.158;8.634;2023-07-24T01:02:39;16.20;99.90
21481;DHT22;10902;48.158;8.634;2023-07-24T01:05:26;16.20;99.90
21481;DHT22;10902;48.158;8.634;2023-07-24T01:08:12;16.00;99.90
21481;DHT22;10902;48.158;8.634;2023-07-24T01:11:00;15.70;99.90
21481;DHT22;10902;48.158;8.634;2023-07-24T01:14:19;15.60;99.90
21481;DHT22;10902;48.158;8.634;2023-07-24T01:17:06;15.70;99.90
21481;DHT22;10902;48.158;8.634;2023-07-24T01:19:58;15.80;99.90
21481;DHT22;10902;48.158;8.634;2023-07-24T01:23:28;15.70;99.90
21481;DHT22;10902;48.158;8.634;2023-07-24T01:26:14;15.80;99.90
21481;DHT22;10902;48.158;8.634;2023-07-24T01:29:00;15.90;99.90
21481;DHT22;10902;48.158;8.634;2023-07-24T01:31:46;16.20;99.90
21481;DHT22;10902;48.158;8.634;2023-07-24T01:34:31;16.40;99.90
21481;DHT22;10902;48.158;8.634;2023-07-24T01:37:18;16.50;99.90
21481;DHT22;10902;48.158;8.634;2023-07-24T01:40:08;16.60;99.90
21481;DHT22;10902;48.158;8.634;2023-07-24T01:42:55;16.50;99.90
21481;DHT22;10902;48.158;8.634;2023-07-24T01:45:40;16.40;99.90
21481;DHT22;10902;48.158;8.634;2023-07-24T01:48:26;16.50;99.90
21481;DHT22;10902;48.158;8.634;2023-07-24T01:51:11;16.40;99.90
21481;DHT22;10902;48.158;8.634;2023-07-24T01:53:57;16.20;99.90
21481;DHT22;10902;48.158;8.634;2023-07-24T01:56:42;16.20;99.90
21481;DHT22;10902;48.158;8.634;2023-07-24T01:59:29;16.20;99.90
21481;DHT22;10902;48.158;8.634;2023-07-24T02:02:14;16.30;99.90
21481;DHT22;10902;48.158;8.634;2023-07-24T02:05:00;16.30;99.90
21481;DHT22;10902;48.158;8.634;2023-07-24T02:07:45;16.30;99.90
21481;DHT22;10902;48.158;8.634;2023-07-24T02:10:31;16.20;99.90
21481;DHT22;10902;48.158;8.634;2023-07-24T02:13:17;16.10;99.90
21481;DHT22;10902;48.158;8.634;2023-07-24T02:16:02;16.00;99.90
21481;DHT22;10902;48.158;8.634;2023-07-24T02:18:48;16.10;99.90
21481;DHT22;10902;48.158;8.634;2023-07-24T02:21:33;16.10;99.90
21481;DHT22;10902;48.158;8.634;2023-07-24T02:24:19;16.00;99.90
21481;DHT22;10902;48.158;8.634;2023-07-24T02:27:05;15.90;99.90
21481;DHT22;10902;48.158;8.634;2023-07-24T02:29:51;15.90;99.90
21481;DHT22;10902;48.158;8.634;2023-07-24T02:32:36;15.90;99.90
21481;DHT22;10902;48.158;8.634;2023-07-24T02:35:22;15.80;99.90
21481;DHT22;10902;48.158;8.634;2023-07-24T02:38:08;15.80;99.90
21481;DHT22;10902;48.158;8.634;2023-07-24T02:40:54;15.80;99.90
21481;DHT22;10902;48.158;8.634;2023-07-24T02:43:39;15.60;99.90
21481;DHT22;10902;48.158;8.634;2023-07-24T02:46:25;15.40;99.90
21481;DHT22;10902;48.158;8.634;2023-07-24T02:49:11;15.30;99.90
21481;DHT22;10902;48.158;8.634;2023-07-24T02:51:56;15.30;99.90
21481;DHT22;10902;48.158;8.634;2023-07-24T02:54:42;15.20;99.90
21481;DHT22;10902;48.158;8.634;2023-07-24T02:57:27;15.20;99.90
21481;DHT22;10902;48.158;8.634;2023-07-24T03:00:13;15.20;99.90
21481;DHT22;10902;48.158;8.634;2023-07-24T03:02:59;15.10;99.90
21481;DHT22;10902;48.158;8.634;2023-07-24T03:05:45;15.10;99.90
21481;DHT22;10902;48.158;8.634;2023-07-24T03:08:31;15.10;99.90
21481;DHT22;10902;48.158;8.634;2023-07-24T03:11:16;15.10;99.90
21481;DHT22;10902;48.158;8.634;2023-07-24T03:14:02;15.10;99.90
21481;DHT22;10902;48.158;8.634;2023-07-24T03:16:47;15.20;99.90
21481;DHT22;10902;48.158;8.634;2023-07-24T03:19:33;15.20;99.90
21481;DHT22;10902;48.158;8.634;2023-07-24T03:22:18;15.20;99.90
21481;DHT22;10902;48.158;8.634;2023-07-24T03:25:04;15.20;99.90
21481;DHT22;10902;48.158;8.634;2023-07-24T03:27:50;15.10;99.90
21481;DHT22;10902;48.158;8.634;2023-07-24T03:30:35;15.10;99.90
21481;DHT22;10902;48.158;8.634;2023-07-24T03:33:21;15.10;99.90
21481;DHT22;10902;48.158;8.634;2023-07-24T03:36:06;15.10;99.90
21481;DHT22;10902;48.158;8.634;2023-07-24T03:38:52;15.00;99.90
21481;DHT22;10902;48.158;8.634;2023-07-24T03:41:38;15.00;99.90
21481;DHT22;10902;48.158;8.634;2023-07-24T03:44:24;14.90;99.90
21481;DHT22;10902;48.158;8.634;2023-07-24T03:47:10;14.80;99.90
21481;DHT22;10902;48.158;8.634;2023-07-24T03:49:55;14.80;99.90
21481;DHT22;10902;48.158;8.634;2023-07-24T03:52:41;14.80;99.90
21481;DHT22;10902;48.158;8.634;2023-07-24T03:55:26;14.90;99.90
21481;DHT22;10902;48.158;8.634;2023-07-24T03:58:12;14.80;99.90
21481;DHT22;10902;48.158;8.634;2023-07-24T04:00:58;14.80;99.90
21481;DHT22;10902;48.158;8.634;2023-07-24T04:03:43;14.80;99.90
21481;DHT22;10902;48.158;8.634;2023-07-24T04:06:29;14.90;99.90
21481;DHT22;10902;48.158;8.634;2023-07-24T04:09:14;15.00;99.90
21481;DHT22;10902;48.158;8.634;2023-07-24T04:12:00;15.00;99.90
21481;DHT22;10902;48.158;8.634;2023-07-24T04:14:46;15.10;99.90
21481;DHT22;10902;48.158;8.634;2023-07-24T04:17:32;15.10;99.90
21481;DHT22;10902;48.158;8.634;2023-07-24T04:20:17;15.10;99.90
21481;DHT22;10902;48.158;8.634;2023-07-24T04:23:03;15.10;99.90
21481;DHT22;10902;48.158;8.634;2023-07-24T04:25:52;15.10;99.90
21481;DHT22;10902;48.158;8.634;2023-07-24T04:28:37;15.20;99.90
21481;DHT22;10902;48.158;8.634;2023-07-24T04:31:23;15.30;99.90
21481;DHT22;10902;48.158;8.634;2023-07-24T04:34:08;15.40;99.90
21481;DHT22;10902;48.158;8.634;2023-07-24T04:36:54;15.50;99.90
21481;DHT22;10902;48.158;8.634;2023-07-24T04:39:40;15.90;99.90
21481;DHT22;10902;48.158;8.634;2023-07-24T04:42:25;16.20;99.90
21481;DHT22;10902;48.158;8.634;2023-07-24T04:45:11;16.30;99.90
21481;DHT22;10902;48.158;8.634;2023-07-24T04:47:56;16.10;99.90
21481;DHT22;10902;48.158;8.634;2023-07-24T04:50:42;15.80;99.90
21481;DHT22;10902;48.158;8.634;2023-07-24T04:53:27;15.80;99.90
21481;DHT22;10902;48.158;8.634;2023-07-24T04:56:13;15.80;99.90
21481;DHT22;10902;48.158;8.634;2023-07-24T04:58:59;15.90;99.90
21481;DHT22;10902;48.158;8.634;2023-07-24T05:01:44;15.90;99.90
21481;DHT22;10902;48.158;8.634;2023-07-24T05:04:30;15.60;99.90
21481;DHT22;10902;48.158;8.634;2023-07-24T05:07:15;15.60;99.90
21481;DHT22;10902;48.158;8.634;2023-07-24T05:10:01;15.80;99.90
21481;DHT22;10902;48.158;8.634;2023-07-24T05:12:46;15.80;99.90
21481;DHT22;10902;48.158;8.634;2023-07-24T05:15:32;15.80;99.90
21481;DHT22;10902;48.158;8.634;2023-07-24T05:18:18;16.00;99.90
21481;DHT22;10902;48.158;8.634;2023-07-24T05:21:03;16.50;99.90
21481;DHT22;10902;48.158;8.634;2023-07-24T05:23:49;16.70;99.90
21481;DHT22;10902;48.158;8.634;2023-07-24T05:26:34;16.80;99.90
21481;DHT22;10902;48.158;8.634;2023-07-24T05:29:20;16.90;99.90
21481;DHT22;10902;48.158;8.634;2023-07-24T05:32:06;16.90;99.90
21481;DHT22;10902;48.158;8.634;2023-07-24T05:34:51;17.00;99.90
21481;DHT22;10902;48.158;8.634;2023-07-24T05:37:37;17.10;99.90
21481;DHT22;10902;48.158;8.634;2023-07-24T05:40:22;17.20;99.90
21481;DHT22;10902;48.158;8.634;2023-07-24T05:43:08;17.30;99.90
21481;DHT22;10902;48.158;8.634;2023-07-24T05:45:55;17.50;99.90
21481;DHT22;10902;48.158;8.634;2023-07-24T05:48:41;17.40;99.90
21481;DHT22;10902;48.158;8.634;2023-07-24T05:51:27;17.50;99.90
21481;DHT22;10902;48.158;8.634;2023-07-24T05:54:13;17.60;99.90
21481;DHT22;10902;48.158;8.634;2023-07-24T05:56:59;17.90;99.90
21481;DHT22;10902;48.158;8.634;2023-07-24T05:59:44;17.90;99.90
21481;DHT22;10902;48.158;8.634;2023-07-24T06:02:30;17.80;99.90
21481;DHT22;10902;48.158;8.634;2023-07-24T06:05:16;17.70;99.90
21481;DHT22;10902;48.158;8.634;2023-07-24T06:08:02;17.60;99.90
21481;DHT22;10902;48.158;8.634;2023-07-24T06:10:48;17.40;99.90
21481;DHT22;10902;48.158;8.634;2023-07-24T06:13:34;17.60;99.90
21481;DHT22;10902;48.158;8.634;2023-07-24T06:16:20;17.80;99.90
21481;DHT22;10902;48.158;8.634;2023-07-24T06:19:05;17.90;99.90
21481;DHT22;10902;48.158;8.634;2023-07-24T06:21:51;18.10;99.90
21481;DHT22;10902;48.158;8.634;2023-07-24T06:24:36;18.30;99.90
21481;DHT22;10902;48.158;8.634;2023-07-24T06:27:23;18.50;99.90
21481;DHT22;10902;48.158;8.634;2023-07-24T06:30:08;18.60;99.90
21481;DHT22;10902;48.158;8.634;2023-07-24T06:32:54;18.80;99.90
21481;DHT22;10902;48.158;8.634;2023-07-24T06:35:40;18.70;99.90
21481;DHT22;10902;48.158;8.634;2023-07-24T06:38:26;18.80;99.90
21481;DHT22;10902;48.158;8.634;2023-07-24T06:41:12;18.60;99.90
21481;DHT22;10902;48.158;8.634;2023-07-24T06:43:57;18.70;99.90
21481;DHT22;10902;48.158;8.634;2023-07-24T06:46:43;18.70;99.90
21481;DHT22;10902;48.158;8.634;2023-07-24T06:49:28;18.50;99.90
21481;DHT22;10902;48.158;8.634;2023-07-24T06:52:14;18.60;99.90
21481;DHT22;10902;48.158;8.634;2023-07-24T06:55:00;18.40;99.90
21481;DHT22;10902;48.158;8.634;2023-07-24T06:57:45;18.50;99.90
21481;DHT22;10902;48.158;8.634;2023-07-24T07:00:31;18.70;99.90
21481;DHT22;10902;48.158;8.634;2023-07-24T07:03:17;18.70;99.90
21481;DHT22;10902;48.158;8.634;2023-07-24T07:06:03;18.90;99.90
21481;DHT22;10902;48.158;8.634;2023-07-24T07:08:49;19.00;99.90
21481;DHT22;10902;48.158;8.634;2023-07-24T07:11:35;19.00;99.90
21481;DHT22;10902;48.158;8.634;2023-07-24T07:14:20;18.90;99.90
21481;DHT22;10902;48.158;8.634;2023-07-24T07:17:06;18.90;99.90
21481;DHT22;10902;48.158;8.634;2023-07-24T07:19:52;18.80;99.90
21481;DHT22;10902;48.158;8.634;2023-07-24T07:22:37;18.70;99.90
21481;DHT22;10902;48.158;8.634;2023-07-24T07:25:23;18.60;99.90
21481;DHT22;10902;48.158;8.634;2023-07-24T07:28:09;18.60;99.90
21481;DHT22;10902;48.158;8.634;2023-07-24T07:30:54;18.80;99.90
21481;DHT22;10902;48.158;8.634;2023-07-24T07:33:40;19.00;99.90
21481;DHT22;10902;48.158;8.634;2023-07-24T07:36:26;19.00;99.90
21481;DHT22;10902;48.158;8.634;2023-07-24T07:39:11;19.00;99.90
21481;DHT22;10902;48.158;8.634;2023-07-24T07:41:57;19.20;99.90
21481;DHT22;10902;48.158;8.634;2023-07-24T07:44:43;19.20;99.90
21481;DHT22;10902;48.158;8.634;2023-07-24T07:47:28;19.10;99.90
21481;DHT22;10902;48.158;8.634;2023-07-24T07:50:14;19.30;99.90
21481;DHT22;10902;48.158;8.634;2023-07-24T07:52:59;19.30;99.90
21481;DHT22;10902;48.158;8.634;2023-07-24T07:55:45;19.40;99.90
21481;DHT22;10902;48.158;8.634;2023-07-24T07:58:31;19.60;99.90
21481;DHT22;10902;48.158;8.634;2023-07-24T08:01:16;19.50;99.90
21481;DHT22;10902;48.158;8.634;2023-07-24T08:04:02;19.80;99.90
21481;DHT22;10902;48.158;8.634;2023-07-24T08:06:47;20.00;99.90
21481;DHT22;10902;48.158;8.634;2023-07-24T08:09:33;19.70;99.90
21481;DHT22;10902;48.158;8.634;2023-07-24T08:12:19;19.70;99.90
21481;DHT22;10902;48.158;8.634;2023-07-24T08:15:05;19.40;99.90
21481;DHT22;10902;48.158;8.634;2023-07-24T08:17:50;19.30;99.90
21481;DHT22;10902;48.158;8.634;2023-07-24T08:20:37;19.30;99.90
21481;DHT22;10902;48.158;8.634;2023-07-24T08:23:23;19.30;99.90
21481;DHT22;10902;48.158;8.634;2023-07-24T08:26:08;19.30;99.90
21481;DHT22;10902;48.158;8.634;2023-07-24T08:28:54;19.30;99.90
21481;DHT22;10902;48.158;8.634;2023-07-24T08:31:39;19.20;99.90
21481;DHT22;10902;48.158;8.634;2023-07-24T08:34:25;19.00;99.90
21481;DHT22;10902;48.158;8.634;2023-07-24T08:37:11;18.90;99.90
21481;DHT22;10902;48.158;8.634;2023-07-24T08:39:57;18.80;99.90
21481;DHT22;10902;48.158;8.634;2023-07-24T08:42:43;18.90;99.90
21481;DHT22;10902;48.158;8.634;2023-07-24T08:45:29;19.00;99.90
21481;DHT22;10902;48.158;8.634;2023-07-24T08:48:16;19.10;99.90
21481;DHT22;10902;48.158;8.634;2023-07-24T08:51:04;19.10;99.90
21481;DHT22;10902;48.158;8.634;2023-07-24T08:53:49;19.10;99.90
21481;DHT22;10902;48.158;8.634;2023-07-24T08:56:36;19.00;99.90
21481;DHT22;10902;48.158;8.634;2023-07-24T08:59:23;18.80;99.90
21481;DHT22;10902;48.158;8.634;2023-07-24T09:02:08;18.90;99.90
21481;DHT22;10902;48.158;8.634;2023-07-24T09:04:54;19.00;99.90
21481;DHT22;10902;48.158;8.634;2023-07-24T09:07:40;19.20;99.90
21481;DHT22;10902;48.158;8.634;2023-07-24T09:10:26;19.30;99.90
21481;DHT22;10902;48.158;8.634;2023-07-24T09:13:12;19.20;99.90
21481;DHT22;10902;48.158;8.634;2023-07-24T09:15:58;18.80;99.90
21481;DHT22;10902;48.158;8.634;2023-07-24T09:18:44;18.60;99.90
21481;DHT22;10902;48.158;8.634;2023-07-24T09:21:31;18.30;99.90
21481;DHT22;10902;48.158;8.634;2023-07-24T09:24:17;18.00;99.90
21481;DHT22;10902;48.158;8.634;2023-07-24T09:27:05;17.90;99.90
21481;DHT22;10902;48.158;8.634;2023-07-24T09:29:52;18.00;99.90
21481;DHT22;10902;48.158;8.634;2023-07-24T09:32:38;18.10;99.90
21481;DHT22;10902;48.158;8.634;2023-07-24T09:35:24;18.30;99.90
21481;DHT22;10902;48.158;8.634;2023-07-24T09:38:12;18.20;99.90
21481;DHT22;10902;48.158;8.634;2023-07-24T09:41:00;18.30;99.90
21481;DHT22;10902;48.158;8.634;2023-07-24T09:43:46;18.40;99.90
21481;DHT22;10902;48.158;8.634;2023-07-24T09:46:32;18.60;99.90
21481;DHT22;10902;48.158;8.634;2023-07-24T09:49:17;18.70;99.90
21481;DHT22;10902;48.158;8.634;2023-07-24T09:52:06;18.90;99.90
21481;DHT22;10902;48.158;8.634;2023-07-24T09:55:01;18.90;99.90
21481;DHT22;10902;48.158;8.634;2023-07-24T09:57:51;18.90;99.90
21481;DHT22;10902;48.158;8.634;2023-07-24T10:00:38;18.80;99.90
21481;DHT22;10902;48.158;8.634;2023-07-24T10:06:49;18.10;99.90
21481;DHT22;10902;48.158;8.634;2023-07-24T10:09:35;17.40;99.90
21481;DHT22;10902;48.158;8.634;2023-07-24T10:12:22;17.20;99.90
21481;DHT22;10902;48.158;8.634;2023-07-24T10:15:09;17.00;99.90
21481;DHT22;10902;48.158;8.634;2023-07-24T10:18:05;17.00;99.90
21481;DHT22;10902;48.158;8.634;2023-07-24T10:21:09;17.00;99.90
21481;DHT22;10902;48.158;8.634;2023-07-24T10:23:59;17.00;99.90
21481;DHT22;10902;48.158;8.634;2023-07-24T10:26:45;17.00;99.90
21481;DHT22;10902;48.158;8.634;2023-07-24T10:29:34;16.90;99.90
21481;DHT22;10902;48.158;8.634;2023-07-24T10:32:21;16.90;99.90
21481;DHT22;10902;48.158;8.634;2023-07-24T10:35:09;16.80;99.90
21481;DHT22;10902;48.158;8.634;2023-07-24T10:38:02;16.80;99.90
21481;DHT22;10902;48.158;8.634;2023-07-24T10:40:48;16.80;99.90
21481;DHT22;10902;48.158;8.634;2023-07-24T10:43:48;16.70;99.90
21481;DHT22;10902;48.158;8.634;2023-07-24T10:46:43;16.60;99.90
21481;DHT22;10902;48.158;8.634;2023-07-24T10:49:36;16.60;99.90
21481;DHT22;10902;48.158;8.634;2023-07-24T10:52:29;16.50;99.90
21481;DHT22;10902;48.158;8.634;2023-07-24T10:55:15;16.30;99.90
21481;DHT22;10902;48.158;8.634;2023-07-24T10:58:01;16.40;99.90
21481;DHT22;10902;48.158;8.634;2023-07-24T11:00:47;16.60;99.90
21481;DHT22;10902;48.158;8.634;2023-07-24T11:03:35;17.30;99.90
21481;DHT22;10902;48.158;8.634;2023-07-24T11:06:21;17.70;99.90
21481;DHT22;10902;48.158;8.634;2023-07-24T11:09:09;17.90;99.90
21481;DHT22;10902;48.158;8.634;2023-07-24T11:11:55;17.50;99.90
21481;DHT22;10902;48.158;8.634;2023-07-24T11:14:50;17.20;99.90
21481;DHT22;10902;48.158;8.634;2023-07-24T11:17:37;17.00;99.90
21481;DHT22;10902;48.158;8.634;2023-07-24T11:20:25;17.00;99.90
21481;DHT22;10902;48.158;8.634;2023-07-24T11:23:11;17.00;99.90
21481;DHT22;10902;48.158;8.634;2023-07-24T11:25:57;17.10;99.90
21481;DHT22;10902;48.158;8.634;2023-07-24T11:28:50;17.20;99.90
21481;DHT22;10902;48.158;8.634;2023-07-24T11:39:42;17.60;99.90
21481;DHT22;10902;48.158;8.634;2023-07-24T11:42:28;17.50;99.90
21481;DHT22;10902;48.158;8.634;2023-07-24T11:45:15;17.80;99.90
21481;DHT22;10902;48.158;8.634;2023-07-24T11:48:00;18.10;99.90
21481;DHT22;10902;48.158;8.634;2023-07-24T11:50:49;18.00;99.90
21481;DHT22;10902;48.158;8.634;2023-07-24T11:53:34;17.70;99.90
21481;DHT22;10902;48.158;8.634;2023-07-24T11:56:20;17.60;99.90
21481;DHT22;10902;48.158;8.634;2023-07-24T11:59:16;17.60;99.90
21481;DHT22;10902;48.158;8.634;2023-07-24T12:02:03;17.80;99.90
21481;DHT22;10902;48.158;8.634;2023-07-24T12:04:56;18.30;99.90
21481;DHT22;10902;48.158;8.634;2023-07-24T12:07:48;18.80;99.90
21481;DHT22;10902;48.158;8.634;2023-07-24T12:10:36;19.00;99.90
21481;DHT22;10902;48.158;8.634;2023-07-24T12:13:23;19.30;99.90
21481;DHT22;10902;48.158;8.634;2023-07-24T12:16:08;19.20;99.90
21481;DHT22;10902;48.158;8.634;2023-07-24T12:18:54;19.00;99.90
21481;DHT22;10902;48.158;8.634;2023-07-24T12:21:39;18.90;99.90
21481;DHT22;10902;48.158;8.634;2023-07-24T12:24:25;18.50;99.90
21481;DHT22;10902;48.158;8.634;2023-07-24T12:27:10;18.50;99.90
21481;DHT22;10902;48.158;8.634;2023-07-24T12:29:56;18.90;99.90
21481;DHT22;10902;48.158;8.634;2023-07-24T12:32:42;19.50;99.90
21481;DHT22;10902;48.158;8.634;2023-07-24T12:35:28;20.50;99.90
21481;DHT22;10902;48.158;8.634;2023-07-24T12:38:13;20.80;99.90
21481;DHT22;10902;48.158;8.634;2023-07-24T12:40:59;21.10;99.90
21481;DHT22;10902;48.158;8.634;2023-07-24T12:43:45;21.30;99.90
21481;DHT22;10902;48.158;8.634;2023-07-24T12:46:30;20.60;99.90
21481;DHT22;10902;48.158;8.634;2023-07-24T12:49:18;20.30;99.90
21481;DHT22;10902;48.158;8.634;2023-07-24T12:52:04;19.50;99.90
21481;DHT22;10902;48.158;8.634;2023-07-24T12:54:50;18.90;99.90
21481;DHT22;10902;48.158;8.634;2023-07-24T12:57:36;18.80;99.90
21481;DHT22;10902;48.158;8.634;2023-07-24T13:00:22;18.80;99.90
21481;DHT22;10902;48.158;8.634;2023-07-24T13:03:07;18.50;99.90
21481;DHT22;10902;48.158;8.634;2023-07-24T13:05:53;18.40;99.90
21481;DHT22;10902;48.158;8.634;2023-07-24T13:08:39;17.90;99.90
21481;DHT22;10902;48.158;8.634;2023-07-24T13:11:25;17.70;99.90
21481;DHT22;10902;48.158;8.634;2023-07-24T13:14:11;17.40;99.90
21481;DHT22;10902;48.158;8.634;2023-07-24T13:16:57;17.10;99.90
21481;DHT22;10902;48.158;8.634;2023-07-24T13:19:43;16.90;99.90
21481;DHT22;10902;48.158;8.634;2023-07-24T13:22:28;16.70;99.90
21481;DHT22;10902;48.158;8.634;2023-07-24T13:25:14;16.60;99.90
21481;DHT22;10902;48.158;8.634;2023-07-24T13:28:00;16.50;99.90
21481;DHT22;10902;48.158;8.634;2023-07-24T13:30:46;16.50;99.90
21481;DHT22;10902;48.158;8.634;2023-07-24T13:33:32;16.50;99.90
21481;DHT22;10902;48.158;8.634;2023-07-24T13:36:17;16.50;99.90
21481;DHT22;10902;48.158;8.634;2023-07-24T13:39:03;16.50;99.90
21481;DHT22;10902;48.158;8.634;2023-07-24T13:41:49;16.60;99.90
21481;DHT22;10902;48.158;8.634;2023-07-24T13:44:35;16.60;99.90
21481;DHT22;10902;48.158;8.634;2023-07-24T13:47:20;16.60;99.90
21481;DHT22;10902;48.158;8.634;2023-07-24T13:50:07;16.60;99.90
21481;DHT22;10902;48.158;8.634;2023-07-24T13:52:53;16.60;99.90
21481;DHT22;10902;48.158;8.634;2023-07-24T13:55:38;16.50;99.90
21481;DHT22;10902;48.158;8.634;2023-07-24T13:58:24;16.60;99.90
21481;DHT22;10902;48.158;8.634;2023-07-24T14:01:10;16.50;99.90
21481;DHT22;10902;48.158;8.634;2023-07-24T14:03:55;16.60;99.90
21481;DHT22;10902;48.158;8.634;2023-07-24T14:06:41;16.60;99.90
21481;DHT22;10902;48.158;8.634;2023-07-24T14:09:27;16.60;99.90
21481;DHT22;10902;48.158;8.634;2023-07-24T14:12:27;16.50;99.90
21481;DHT22;10902;48.158;8.634;2023-07-24T14:30:43;16.90;99.90
21481;DHT22;10902;48.158;8.634;2023-07-24T14:33:34;17.00;99.90
21481;DHT22;10902;48.158;8.634;2023-07-24T14:36:20;17.20;99.90
21481;DHT22;10902;48.158;8.634;2023-07-24T14:39:06;17.60;99.90
21481;DHT22;10902;48.158;8.634;2023-07-24T14:42:07;17.70;99.90
21481;DHT22;10902;48.158;8.634;2023-07-24T14:45:23;17.90;99.90
21481;DHT22;10902;48.158;8.634;2023-07-24T14:58:38;20.20;99.90
21481;DHT22;10902;48.158;8.634;2023-07-24T15:01:25;19.70;99.90
21481;DHT22;10902;48.158;8.634;2023-07-24T15:04:13;19.50;99.90
21481;DHT22;10902;48.158;8.634;2023-07-24T15:06:58;20.40;99.90
21481;DHT22;10902;48.158;8.634;2023-07-24T15:09:44;20.00;99.90
21481;DHT22;10902;48.158;8.634;2023-07-24T15:12:30;19.50;99.90
21481;DHT22;10902;48.158;8.634;2023-07-24T15:15:16;19.10;99.90
21481;DHT22;10902;48.158;8.634;2023-07-24T15:18:01;19.10;99.90
21481;DHT22;10902;48.158;8.634;2023-07-24T15:20:47;18.90;99.90
21481;DHT22;10902;48.158;8.634;2023-07-24T15:23:33;19.00;99.90
21481;DHT22;10902;48.158;8.634;2023-07-24T15:26:19;18.90;99.90
21481;DHT22;10902;48.158;8.634;2023-07-24T15:29:04;19.00;99.90
21481;DHT22;10902;48.158;8.634;2023-07-24T15:31:50;18.90;99.90
21481;DHT22;10902;48.158;8.634;2023-07-24T15:34:35;18.80;99.90
21481;DHT22;10902;48.158;8.634;2023-07-24T15:37:21;19.30;99.90
21481;DHT22;10902;48.158;8.634;2023-07-24T15:40:07;19.50;99.90
21481;DHT22;10902;48.158;8.634;2023-07-24T15:42:53;19.40;99.90
21481;DHT22;10902;48.158;8.634;2023-07-24T15:45:38;19.50;99.90
21481;DHT22;10902;48.158;8.634;2023-07-24T15:48:24;19.50;99.90
21481;DHT22;10902;48.158;8.634;2023-07-24T15:51:09;19.40;99.90
21481;DHT22;10902;48.158;8.634;2023-07-24T15:53:55;19.60;99.90
21481;DHT22;10902;48.158;8.634;2023-07-24T15:56:41;19.60;99.90
21481;DHT22;10902;48.158;8.634;2023-07-24T15:59:29;19.40;99.90
21481;DHT22;10902;48.158;8.634;2023-07-24T16:02:15;19.30;99.90
21481;DHT22;10902;48.158;8.634;2023-07-24T16:05:04;19.00;99.90
21481;DHT22;10902;48.158;8.634;2023-07-24T16:07:52;19.20;99.90
21481;DHT22;10902;48.158;8.634;2023-07-24T16:10:38;19.30;99.90
21481;DHT22;10902;48.158;8.634;2023-07-24T16:13:24;19.40;99.90
21481;DHT22;10902;48.158;8.634;2023-07-24T16:16:10;19.50;99.90
21481;DHT22;10902;48.158;8.634;2023-07-24T16:21:59;20.40;99.90
21481;DHT22;10902;48.158;8.634;2023-07-24T16:24:45;21.70;99.90
21481;DHT22;10902;48.158;8.634;2023-07-24T16:27:31;22.00;99.90
21481;DHT22;10902;48.158;8.634;2023-07-24T16:30:16;22.40;99.90
21481;DHT22;10902;48.158;8.634;2023-07-24T16:33:02;22.30;99.90
21481;DHT22;10902;48.158;8.634;2023-07-24T16:35:51;21.90;99.90
21481;DHT22;10902;48.158;8.634;2023-07-24T16:38:37;22.00;99.90
21481;DHT22;10902;48.158;8.634;2023-07-24T16:41:22;22.80;99.90
21481;DHT22;10902;48.158;8.634;2023-07-24T16:44:08;23.30;99.90
21481;DHT22;10902;48.158;8.634;2023-07-24T16:46:55;23.30;99.90
21481;DHT22;10902;48.158;8.634;2023-07-24T16:49:41;23.20;99.90
21481;DHT22;10902;48.158;8.634;2023-07-24T16:52:29;23.40;99.90
21481;DHT22;10902;48.158;8.634;2023-07-24T16:55:15;24.40;99.90
21481;DHT22;10902;48.158;8.634;2023-07-24T16:58:00;24.40;99.90
21481;DHT22;10902;48.158;8.634;2023-07-24T17:00:46;23.50;99.90
21481;DHT22;10902;48.158;8.634;2023-07-24T17:03:32;22.90;99.90
21481;DHT22;10902;48.158;8.634;2023-07-24T17:06:17;21.50;99.90
21481;DHT22;10902;48.158;8.634;2023-07-24T17:09:03;21.80;99.90
21481;DHT22;10902;48.158;8.634;2023-07-24T17:11:49;22.20;99.90
21481;DHT22;10902;48.158;8.634;2023-07-24T17:14:34;22.70;99.90
21481;DHT22;10902;48.158;8.634;2023-07-24T17:17:20;22.70;99.90
21481;DHT22;10902;48.158;8.634;2023-07-24T17:20:06;22.80;99.90
21481;DHT22;10902;48.158;8.634;2023-07-24T17:22:52;21.20;99.90
21481;DHT22;10902;48.158;8.634;2023-07-24T17:25:39;20.30;99.90
21481;DHT22;10902;48.158;8.634;2023-07-24T17:28:25;19.80;99.90
21481;DHT22;10902;48.158;8.634;2023-07-24T17:31:10;19.50;99.90
21481;DHT22;10902;48.158;8.634;2023-07-24T17:33:56;19.40;99.90
21481;DHT22;10902;48.158;8.634;2023-07-24T17:36:41;19.40;99.90
21481;DHT22;10902;48.158;8.634;2023-07-24T17:39:27;19.30;99.90
21481;DHT22;10902;48.158;8.634;2023-07-24T17:42:13;19.30;99.90
21481;DHT22;10902;48.158;8.634;2023-07-24T17:44:59;19.20;99.90
21481;DHT22;10902;48.158;8.634;2023-07-24T17:47:45;19.00;99.90
21481;DHT22;10902;48.158;8.634;2023-07-24T17:50:30;18.80;99.90
21481;DHT22;10902;48.158;8.634;2023-07-24T17:53:19;18.90;99.90
21481;DHT22;10902;48.158;8.634;2023-07-24T17:56:04;19.30;99.90
21481;DHT22;10902;48.158;8.634;2023-07-24T17:58:50;19.40;99.90
21481;DHT22;10902;48.158;8.634;2023-07-24T18:01:36;19.80;99.90
21481;DHT22;10902;48.158;8.634;2023-07-24T18:04:22;19.90;99.90
21481;DHT22;10902;48.158;8.634;2023-07-24T18:07:08;20.70;99.90
21481;DHT22;10902;48.158;8.634;2023-07-24T18:09:54;20.80;99.90
21481;DHT22;10902;48.158;8.634;2023-07-24T18:12:39;21.30;99.90